Keegan Foss — WCW5595 — position and weather

sailwx.info

Track history (hours):
 
Tides and Currents Weather Stations Pressure Air Temp Water Temp Dewpoint Dewpoint Depression Visibility Wind Speed Wind Dir Waves Ship Positions

Keegan Foss

Owner: FOSS MARITIME CO, SEATTLE, WA. More information available from US FCC via Universal Licensing System and Coast Guard Vessel Documentation Center.

Last reported at 2017-Dec-18 12:30 UTC. Time now 2017-Dec-18 12:32 UTC.
Position N 37°54' W 122°22'.

Length 31 m; draft 3.6 m.

Type: Tug. MMSI: 366979330.

Date/timePositionNaut miles runAvg speedWind from/ knotsBaromVisibWave heightAir tempDewpointWater temp
2017-Dec-18 12:30N 37°54' W 122°22'0 0.4
2017-Dec-18 12:00N 37°54' W 122°22'2 4.2
2017-Dec-18 11:30N 37°55' W 122°24'1 2.4
2017-Dec-18 11:00N 37°54' W 122°25'2 2.8
2017-Dec-18 10:24N 37°55' W 122°25'0 0.0
2017-Dec-18 10:00N 37°55' W 122°25'0 0.0
2017-Dec-18 09:31N 37°55' W 122°25'0 0.0
2017-Dec-18 09:00N 37°55' W 122°25'0 0.0
2017-Dec-18 08:30N 37°55' W 122°25'0 0.0
2017-Dec-18 08:00N 37°55' W 122°25'0 0.0
2017-Dec-18 07:30N 37°55' W 122°25'0 0.0
2017-Dec-18 07:00N 37°55' W 122°25'0 0.0
2017-Dec-18 06:30N 37°55' W 122°25'0 0.0
2017-Dec-18 06:00N 37°55' W 122°25'0 0.0
2017-Dec-18 05:30N 37°55' W 122°25'0 0.0
2017-Dec-18 05:00N 37°55' W 122°25'0 0.0
2017-Dec-18 04:30N 37°55' W 122°25'0 0.0
2017-Dec-18 04:00N 37°55' W 122°25'0 0.0
2017-Dec-18 03:30N 37°55' W 122°25'0 0.0
2017-Dec-18 03:00N 37°55' W 122°25'0 0.0
2017-Dec-18 02:30N 37°55' W 122°25'0 0.0
2017-Dec-18 02:00N 37°55' W 122°25'0 0.0
2017-Dec-18 01:30N 37°55' W 122°25'0 0.0
2017-Dec-18 01:00N 37°55' W 122°25'0 0.0
2017-Dec-18 00:30N 37°55' W 122°25'0 0.0
2017-Dec-18 00:00N 37°55' W 122°25'0 0.0
2017-Dec-17 23:30N 37°55' W 122°25'0 0.0
2017-Dec-17 23:00N 37°55' W 122°25'0 0.0
2017-Dec-17 22:30N 37°55' W 122°25'0 0.0
2017-Dec-17 22:00N 37°55' W 122°25'0 0.0
2017-Dec-17 21:28N 37°55' W 122°25'0 0.0
2017-Dec-17 21:00N 37°55' W 122°25'0 0.0
2017-Dec-17 20:30N 37°55' W 122°25'0 0.0
2017-Dec-17 20:00N 37°55' W 122°25'0 0.0
2017-Dec-17 19:30N 37°55' W 122°25'0 0.0
2017-Dec-17 18:57N 37°55' W 122°25'0 0.0
2017-Dec-17 18:30N 37°55' W 122°25'0 0.0
2017-Dec-17 18:00N 37°55' W 122°25'0 0.0
2017-Dec-17 17:30N 37°55' W 122°25'0 0.2
2017-Dec-17 17:00N 37°55' W 122°25'0 0.2
2017-Dec-17 16:30N 37°55' W 122°25'0 0.0
2017-Dec-17 15:45N 37°55' W 122°25'0 0.0
2017-Dec-17 15:30N 37°55' W 122°25'2 3.6
2017-Dec-17 15:01N 37°54' W 122°23'1 2.0
2017-Dec-17 14:30N 37°55' W 122°22'2 3.2
2017-Dec-17 14:01N 37°54' W 122°24'2 4.0
2017-Dec-17 13:31N 37°52' W 122°24'4 7.0
2017-Dec-17 13:01N 37°50' W 122°22'3 5.7
2017-Dec-17 12:30N 37°48' W 122°19'0 0.0
2017-Dec-17 11:58N 37°48' W 122°19'0 0.0
2017-Dec-17 11:28N 37°48' W 122°19'0 0.0
2017-Dec-17 10:58N 37°48' W 122°19'0 0.0
2017-Dec-17 10:28N 37°48' W 122°19'0 0.0
2017-Dec-17 09:58N 37°48' W 122°19'0 0.0
2017-Dec-17 09:28N 37°48' W 122°19'0 0.0
2017-Dec-17 08:58N 37°48' W 122°19'0 0.0
2017-Dec-17 08:28N 37°48' W 122°19'0 0.0
2017-Dec-17 07:58N 37°48' W 122°19'0 0.0
2017-Dec-17 07:28N 37°48' W 122°19'0 0.0
2017-Dec-17 06:58N 37°48' W 122°19'0 0.0
2017-Dec-17 06:28N 37°48' W 122°19'0 0.0
2017-Dec-17 05:58N 37°48' W 122°19'0 0.0
2017-Dec-17 05:28N 37°48' W 122°19'0 0.0
2017-Dec-17 05:01N 37°48' W 122°19'0 0.1
2017-Dec-17 04:30N 37°48' W 122°19'2 4.6
2017-Dec-17 04:01N 37°49' W 122°21'0 0.4
2017-Dec-17 03:25N 37°49' W 122°22'0 0.0
2017-Dec-17 02:58N 37°49' W 122°22'0 0.0
2017-Dec-17 02:28N 37°49' W 122°22'0 0.0
2017-Dec-17 02:00N 37°49' W 122°22'0 0.0
2017-Dec-17 01:31N 37°49' W 122°22'0 0.0
2017-Dec-17 01:00N 37°49' W 122°22'0 0.0
2017-Dec-17 00:30N 37°49' W 122°22'0 0.0
2017-Dec-17 00:00N 37°49' W 122°22'0 0.0
2017-Dec-16 23:30N 37°49' W 122°22'0 0.0
2017-Dec-16 23:00N 37°49' W 122°22'0 0.0
2017-Dec-16 22:30N 37°49' W 122°22'0 0.0
2017-Dec-16 22:00N 37°49' W 122°22'0 0.0
2017-Dec-16 21:30N 37°49' W 122°22'2 4.5
2017-Dec-16 21:01N 37°47' W 122°21'1 1.6
2017-Dec-16 20:30N 37°46' W 122°21'0 0.4
2017-Dec-16 20:00N 37°46' W 122°21'0 0.2
2017-Dec-16 19:30N 37°46' W 122°21'0 0.0
2017-Dec-16 18:57N 37°46' W 122°21'0 0.0
2017-Dec-16 18:30N 37°46' W 122°21'0 0.0
2017-Dec-16 18:00N 37°46' W 122°21'0 0.0
2017-Dec-16 17:30N 37°46' W 122°21'0 0.1
2017-Dec-16 17:00N 37°46' W 122°21'0 0.1
2017-Dec-16 16:30N 37°46' W 122°21'2 4.7
2017-Dec-16 16:00N 37°48' W 122°21'1 2.0
2017-Dec-16 15:30N 37°49' W 122°22'4 7.7
2017-Dec-16 15:00N 37°53' W 122°24'3 5.1
2017-Dec-16 14:30N 37°54' W 122°22'1 1.6
2017-Dec-16 14:00N 37°55' W 122°22'1 1.8
2017-Dec-16 13:30N 37°54' W 122°22'0 0.8
2017-Dec-16 13:00N 37°54' W 122°22'0 0.0
2017-Dec-16 12:30N 37°54' W 122°22'1 1.0
2017-Dec-16 12:00N 37°54' W 122°22'0 0.0
2017-Dec-16 11:30N 37°54' W 122°22'0 0.0
2017-Dec-16 11:00N 37°54' W 122°22'0 0.0
2017-Dec-16 10:31N 37°54' W 122°22'0 0.0
2017-Dec-16 10:00N 37°54' W 122°22'0 0.0
2017-Dec-16 09:30N 37°54' W 122°22'0 0.0
2017-Dec-16 09:00N 37°54' W 122°22'0 0.0
2017-Dec-16 08:30N 37°54' W 122°22'0 0.0
2017-Dec-16 08:00N 37°54' W 122°22'0 0.0
2017-Dec-16 07:30N 37°54' W 122°22'0 0.0
2017-Dec-16 07:00N 37°54' W 122°22'0 0.0
2017-Dec-16 06:30N 37°54' W 122°22'0 0.0
2017-Dec-16 06:00N 37°54' W 122°22'0 0.0
2017-Dec-16 05:30N 37°54' W 122°22'0 0.0
2017-Dec-16 05:00N 37°54' W 122°22'1 1.0
2017-Dec-16 04:30N 37°54' W 122°22'1 1.9
2017-Dec-16 04:00N 37°55' W 122°22'1 1.2
2017-Dec-16 03:30N 37°55' W 122°22'1 1.2
2017-Dec-16 03:00N 37°54' W 122°22'0 0.2
2017-Dec-16 02:29N 37°54' W 122°22'0 0.0
2017-Dec-16 02:00N 37°54' W 122°22'2 3.5
2017-Dec-16 01:30N 37°55' W 122°24'1 0.4
2017-Dec-16 00:06N 37°55' W 122°25'0 0.0
2017-Dec-15 23:12N 37°55' W 122°25'0 0.0
2017-Dec-15 23:00N 37°55' W 122°25'0 0.0
2017-Dec-15 22:21N 37°55' W 122°25'0 0.0
2017-Dec-15 21:57N 37°55' W 122°25'0 0.0
2017-Dec-15 21:25N 37°55' W 122°25'2 5.0
2017-Dec-15 21:00N 37°54' W 122°22'1 1.0
2017-Dec-15 20:29N 37°55' W 122°22'0 0.1
2017-Dec-15 19:53N 37°54' W 122°22'0 0.1
2017-Dec-15 19:29N 37°54' W 122°22'0 0.1
2017-Dec-15 19:00N 37°55' W 122°22'3 5.5
2017-Dec-15 18:30N 37°56' W 122°25'0 0.0
2017-Dec-15 18:00N 37°56' W 122°25'0 0.1
2017-Dec-15 17:30N 37°56' W 122°25'2 3.9
2017-Dec-15 17:00N 37°54' W 122°25'0 0.6
2017-Dec-15 16:30N 37°53' W 122°25'1 2.5
2017-Dec-15 16:00N 37°55' W 122°24'2 3.2
2017-Dec-15 15:29N 37°54' W 122°22'0 0.0
2017-Dec-15 14:50N 37°54' W 122°22'0 0.0
2017-Dec-15 14:29N 37°54' W 122°22'0 0.0
2017-Dec-15 14:00N 37°54' W 122°22'0 0.4
2017-Dec-15 13:31N 37°54' W 122°22'1 2.1
2017-Dec-15 13:00N 37°55' W 122°22'1 2.0
2017-Dec-15 12:30N 37°54' W 122°22'0 0.2
2017-Dec-15 11:59N 37°54' W 122°22'0 0.0
2017-Dec-15 11:29N 37°54' W 122°22'0 0.0
2017-Dec-15 10:59N 37°54' W 122°22'0 0.0
2017-Dec-15 10:29N 37°54' W 122°22'0 0.0
2017-Dec-15 09:59N 37°54' W 122°22'0 0.0
2017-Dec-15 09:29N 37°54' W 122°22'0 0.0
2017-Dec-15 08:56N 37°54' W 122°22'0 0.0
2017-Dec-15 08:29N 37°54' W 122°22'0 0.0
2017-Dec-15 07:59N 37°54' W 122°22'0 0.0
2017-Dec-15 07:29N 37°54' W 122°22'2 3.9
2017-Dec-15 07:00N 37°55' W 122°25'1 1.0
2017-Dec-15 06:30N 37°55' W 122°25'0 0.0
2017-Dec-15 06:00N 37°55' W 122°25'0 0.0
2017-Dec-15 05:30N 37°55' W 122°25'0 0.0
2017-Dec-15 05:00N 37°55' W 122°25'0 0.0
2017-Dec-15 04:27N 37°55' W 122°25'0 0.0
2017-Dec-15 03:57N 37°55' W 122°25'0 0.0
2017-Dec-15 02:27N 37°55' W 122°25'0 0.0
2017-Dec-15 01:00N 37°55' W 122°25'0 0.0
2017-Dec-15 00:27N 37°55' W 122°25'2 0.3
2017-Dec-14 18:30N 37°54' W 122°22'0 0.0
2017-Dec-14 18:00N 37°54' W 122°22'0 0.0
2017-Dec-14 17:24N 37°54' W 122°22'0 0.0
2017-Dec-14 17:00N 37°54' W 122°22'0 0.0
2017-Dec-14 16:30N 37°54' W 122°22'0 0.0
2017-Dec-14 16:00N 37°54' W 122°22'2 2.3
2017-Dec-14 15:00N 37°55' W 122°25'0 0.7
2017-Dec-14 14:30N 37°55' W 122°25'3 5.4
2017-Dec-14 14:01N 37°54' W 122°22'0 0.8
2017-Dec-14 13:31N 37°55' W 122°22'1 1.2
2017-Dec-14 13:01N 37°54' W 122°22'0 0.0
2017-Dec-14 12:30N 37°54' W 122°22'0 0.0
2017-Dec-14 12:01N 37°54' W 122°22'0 0.0
2017-Dec-14 11:31N 37°54' W 122°22'0 0.0
2017-Dec-14 11:01N 37°54' W 122°22'0 0.0
2017-Dec-14 10:30N 37°54' W 122°22'0 0.0
2017-Dec-14 10:01N 37°54' W 122°22'0 0.0
2017-Dec-14 09:31N 37°54' W 122°22'0 0.0
2017-Dec-14 09:01N 37°54' W 122°22'0 0.0
2017-Dec-14 08:30N 37°54' W 122°22'0 0.0
2017-Dec-14 08:01N 37°54' W 122°22'0 0.0
2017-Dec-14 07:31N 37°54' W 122°22'0 0.0
2017-Dec-14 07:01N 37°54' W 122°22'0 0.0
2017-Dec-14 06:30N 37°54' W 122°22'0 0.0
2017-Dec-14 06:01N 37°54' W 122°22'0 0.0
2017-Dec-14 05:30N 37°54' W 122°22'0 0.0
2017-Dec-14 05:00N 37°54' W 122°22'0 0.0
2017-Dec-14 04:31N 37°54' W 122°22'0 0.8
2017-Dec-14 04:01N 37°54' W 122°22'0 0.2
2017-Dec-14 03:31N 37°54' W 122°22'0 0.2
2017-Dec-14 03:00N 37°54' W 122°22'1 1.6
2017-Dec-14 02:30N 37°55' W 122°22'0 0.0
2017-Dec-14 02:01N 37°55' W 122°22'1 1.1
2017-Dec-14 01:31N 37°55' W 122°22'0 0.9
2017-Dec-14 01:00N 37°54' W 122°22'2 3.2
2017-Dec-14 00:30N 37°54' W 122°24'1 2.6
2017-Dec-14 00:00N 37°54' W 122°22'0 0.0
2017-Dec-13 23:30N 37°54' W 122°22'0 0.0
2017-Dec-13 22:57N 37°54' W 122°22'0 0.0
2017-Dec-13 22:30N 37°54' W 122°22'0 0.0
2017-Dec-13 22:00N 37°54' W 122°22'0 0.0
2017-Dec-13 21:27N 37°54' W 122°22'0 0.0
2017-Dec-13 21:00N 37°54' W 122°22'0 0.0
2017-Dec-13 20:30N 37°54' W 122°22'0 0.0
2017-Dec-13 20:00N 37°54' W 122°22'0 0.0
2017-Dec-13 19:30N 37°54' W 122°22'0 0.0
2017-Dec-13 18:57N 37°54' W 122°22'0 0.0
2017-Dec-13 18:09N 37°54' W 122°22'0 0.0
2017-Dec-13 17:51N 37°54' W 122°22'0 0.0
2017-Dec-13 17:12N 37°54' W 122°22'0 0.0
2017-Dec-13 17:00N 37°54' W 122°22'0 0.0
2017-Dec-13 16:30N 37°54' W 122°22'0 0.0
2017-Dec-13 16:00N 37°54' W 122°22'0 0.0
2017-Dec-13 15:21N 37°54' W 122°22'0 0.0
2017-Dec-13 14:57N 37°54' W 122°22'0 0.0
2017-Dec-13 14:30N 37°54' W 122°22'0 0.0
2017-Dec-13 13:57N 37°54' W 122°22'0 0.0
2017-Dec-13 13:27N 37°54' W 122°22'0 0.0
2017-Dec-13 13:00N 37°54' W 122°22'0 0.0
2017-Dec-13 12:30N 37°54' W 122°22'0 0.0
2017-Dec-13 12:00N 37°54' W 122°22'0 0.0
2017-Dec-13 11:30N 37°54' W 122°22'0 0.0
2017-Dec-13 11:00N 37°54' W 122°22'0 0.0
2017-Dec-13 10:30N 37°54' W 122°22'0 0.0
2017-Dec-13 10:00N 37°54' W 122°22'0 0.0
2017-Dec-13 09:30N 37°54' W 122°22'0 0.0
2017-Dec-13 08:57N 37°54' W 122°22'0 0.0
2017-Dec-13 08:30N 37°54' W 122°22'0 0.0
2017-Dec-13 08:00N 37°54' W 122°22'0 0.0
2017-Dec-13 07:30N 37°54' W 122°22'0 0.0
2017-Dec-13 07:00N 37°54' W 122°22'1 1.3
2017-Dec-13 06:30N 37°55' W 122°22'0 0.2
2017-Dec-13 06:00N 37°55' W 122°22'3 5.2
2017-Dec-13 05:30N 37°54' W 122°25'2 4.8
2017-Dec-13 05:00N 37°52' W 122°24'4 8.1
2017-Dec-13 04:30N 37°48' W 122°22'4 7.4
2017-Dec-13 04:00N 37°45' W 122°21'1 1.9
2017-Dec-13 03:30N 37°44' W 122°21'0 0.0
2017-Dec-13 02:58N 37°44' W 122°21'0 0.0
2017-Dec-13 02:31N 37°44' W 122°21'0 0.0
2017-Dec-13 01:58N 37°44' W 122°21'0 0.0
2017-Dec-13 01:31N 37°44' W 122°21'0 0.0
2017-Dec-13 01:01N 37°44' W 122°21'0 0.0
2017-Dec-13 00:31N 37°44' W 122°21'0 0.0
2017-Dec-12 23:57N 37°44' W 122°21'0 0.1
2017-Dec-12 23:27N 37°44' W 122°21'0 0.3
2017-Dec-12 22:57N 37°44' W 122°21'0 0.1
2017-Dec-12 22:31N 37°44' W 122°21'0 0.0
2017-Dec-12 22:00N 37°44' W 122°21'2 3.2
2017-Dec-12 21:30N 37°45' W 122°21'3 6.7
2017-Dec-12 21:01N 37°49' W 122°21'0 0.9
2017-Dec-12 20:28N 37°49' W 122°22'0 0.0
2017-Dec-12 19:58N 37°49' W 122°22'0 0.0
2017-Dec-12 19:28N 37°49' W 122°22'0 0.0
2017-Dec-12 18:58N 37°49' W 122°22'0 0.0
2017-Dec-12 18:28N 37°49' W 122°22'0 0.0
2017-Dec-12 17:58N 37°49' W 122°22'0 0.0
2017-Dec-12 17:28N 37°49' W 122°22'0 0.0
2017-Dec-12 16:58N 37°49' W 122°22'0 0.0
2017-Dec-12 16:28N 37°49' W 122°22'0 0.0
2017-Dec-12 16:01N 37°49' W 122°22'0 0.1
2017-Dec-12 15:31N 37°49' W 122°22'3 6.6
2017-Dec-12 15:00N 37°52' W 122°24'2 4.7
2017-Dec-12 14:30N 37°54' W 122°23'1 2.5
2017-Dec-12 14:00N 37°55' W 122°22'1 1.4
2017-Dec-12 13:26N 37°54' W 122°22'0 0.0
2017-Dec-12 12:59N 37°54' W 122°22'0 0.0
2017-Dec-12 12:29N 37°54' W 122°22'0 0.0
2017-Dec-12 11:59N 37°54' W 122°22'0 0.0
2017-Dec-12 11:29N 37°54' W 122°22'0 0.0
2017-Dec-12 10:59N 37°54' W 122°22'0 0.0
2017-Dec-12 10:29N 37°54' W 122°22'0 0.0
2017-Dec-12 09:53N 37°54' W 122°22'0 0.0
2017-Dec-12 09:29N 37°54' W 122°22'0 0.0
2017-Dec-12 08:56N 37°54' W 122°22'0 0.0
2017-Dec-12 08:29N 37°54' W 122°22'0 0.0
2017-Dec-12 07:59N 37°54' W 122°22'0 0.0
2017-Dec-12 07:29N 37°54' W 122°22'0 0.0
2017-Dec-12 06:59N 37°54' W 122°22'0 0.0
2017-Dec-12 06:29N 37°54' W 122°22'0 0.0
2017-Dec-12 05:59N 37°54' W 122°22'0 0.0
2017-Dec-12 05:29N 37°54' W 122°22'0 0.5
2017-Dec-12 05:00N 37°54' W 122°23'2 4.1
2017-Dec-12 04:31N 37°55' W 122°25'0 0.9
2017-Dec-12 04:00N 37°55' W 122°25'2 4.6
2017-Dec-12 03:30N 37°55' W 122°22'1 1.2
2017-Dec-12 03:00N 37°55' W 122°22'0 0.1
2017-Dec-12 02:30N 37°55' W 122°22'0 0.5
2017-Dec-12 02:00N 37°55' W 122°22'1 1.7
2017-Dec-12 01:30N 37°54' W 122°22'0 0.0
2017-Dec-12 01:00N 37°54' W 122°22'0 0.0
2017-Dec-12 00:30N 37°54' W 122°22'0 0.0
2017-Dec-12 00:00N 37°54' W 122°22'0 0.0
2017-Dec-11 23:30N 37°54' W 122°22'0 0.0
2017-Dec-11 23:00N 37°54' W 122°22'0 0.0
2017-Dec-11 22:30N 37°54' W 122°22'0 0.0
2017-Dec-11 21:59N 37°54' W 122°22'1 2.6
2017-Dec-11 21:30N 37°54' W 122°24'3 6.1
2017-Dec-11 21:00N 37°51' W 122°23'4 8.4
2017-Dec-11 20:31N 37°48' W 122°20'2 3.4
2017-Dec-11 20:00N 37°48' W 122°18'0 0.0
2017-Dec-11 19:30N 37°48' W 122°18'0 0.0
2017-Dec-11 19:00N 37°48' W 122°18'0 0.0
2017-Dec-11 18:30N 37°48' W 122°18'0 0.0
2017-Dec-11 18:00N 37°48' W 122°18'0 0.0
2017-Dec-11 17:31N 37°48' W 122°18'0 0.0
2017-Dec-11 17:00N 37°48' W 122°18'0 0.0
2017-Dec-11 16:30N 37°48' W 122°18'0 0.0
2017-Dec-11 16:00N 37°48' W 122°18'0 0.0
2017-Dec-11 15:30N 37°48' W 122°18'0 0.0
2017-Dec-11 15:00N 37°48' W 122°18'0 0.8
2017-Dec-11 14:31N 37°48' W 122°18'1 1.7
2017-Dec-11 14:00N 37°48' W 122°19'2 4.2
2017-Dec-11 13:30N 37°49' W 122°21'2 3.9
2017-Dec-11 13:00N 37°51' W 122°23'3 6.5
2017-Dec-11 12:30N 37°54' W 122°25'2 3.7
2017-Dec-11 12:00N 37°54' W 122°22'0 0.1
2017-Dec-11 11:30N 37°54' W 122°22'0 0.0
2017-Dec-11 11:00N 37°54' W 122°22'0 0.0
2017-Dec-11 10:30N 37°54' W 122°22'0 0.0
2017-Dec-11 10:00N 37°54' W 122°22'0 0.0
2017-Dec-11 09:30N 37°54' W 122°22'0 0.0
2017-Dec-11 09:00N 37°54' W 122°22'0 0.0
2017-Dec-11 08:30N 37°54' W 122°22'0 0.0
2017-Dec-11 08:00N 37°54' W 122°22'0 0.0
2017-Dec-11 07:30N 37°54' W 122°22'0 0.0
2017-Dec-11 07:00N 37°54' W 122°22'0 0.0
2017-Dec-11 06:30N 37°54' W 122°22'0 0.0
2017-Dec-11 06:00N 37°54' W 122°22'0 0.0
2017-Dec-11 05:30N 37°54' W 122°22'0 0.0
2017-Dec-11 05:00N 37°54' W 122°22'0 0.0
2017-Dec-11 04:30N 37°54' W 122°22'1 1.2
2017-Dec-11 03:50N 37°55' W 122°22'1 2.8
2017-Dec-11 03:30N 37°54' W 122°23'2 4.7
2017-Dec-11 03:00N 37°55' W 122°25'0 0.6
2017-Dec-11 02:28N 37°55' W 122°25'0 0.0
2017-Dec-11 01:55N 37°55' W 122°25'0 0.0
2017-Dec-11 01:28N 37°55' W 122°25'0 0.0
2017-Dec-11 00:58N 37°55' W 122°25'1 2.0
2017-Dec-11 00:30N 37°55' W 122°25'1 1.6
2017-Dec-10 23:56N 37°56' W 122°25'0 0.9
2017-Dec-10 23:30N 37°55' W 122°25'2 4.3
2017-Dec-10 22:59N 37°54' W 122°22'0 0.0
2017-Dec-10 22:29N 37°54' W 122°22'0 0.0
2017-Dec-10 21:59N 37°54' W 122°22'0 0.0
2017-Dec-10 21:29N 37°54' W 122°22'0 0.0
2017-Dec-10 20:47N 37°54' W 122°22'0 0.0
2017-Dec-10 20:29N 37°54' W 122°22'0 0.0
2017-Dec-10 19:59N 37°54' W 122°22'0 0.0
2017-Dec-10 19:29N 37°54' W 122°22'0 0.0
2017-Dec-10 18:59N 37°54' W 122°22'0 0.0
2017-Dec-10 18:29N 37°54' W 122°22'0 0.0
2017-Dec-10 17:59N 37°54' W 122°22'0 0.0
2017-Dec-10 17:29N 37°54' W 122°22'0 0.0
2017-Dec-10 16:59N 37°54' W 122°22'0 0.0
2017-Dec-10 16:29N 37°54' W 122°22'0 0.0
2017-Dec-10 16:00N 37°54' W 122°22'1 1.4
2017-Dec-10 15:30N 37°55' W 122°22'2 4.6
2017-Dec-10 15:00N 37°54' W 122°25'4 8.7
2017-Dec-10 14:30N 37°50' W 122°23'4 8.4
2017-Dec-10 14:00N 37°46' W 122°21'3 5.6
2017-Dec-10 13:30N 37°44' W 122°19'0 0.0
2017-Dec-10 13:00N 37°44' W 122°19'0 0.0
2017-Dec-10 12:30N 37°44' W 122°19'0 0.0
2017-Dec-10 12:00N 37°44' W 122°19'0 0.0
2017-Dec-10 11:30N 37°44' W 122°19'0 0.0
2017-Dec-10 11:01N 37°44' W 122°19'0 0.0
2017-Dec-10 10:30N 37°44' W 122°19'0 0.1
2017-Dec-10 10:01N 37°44' W 122°20'0 0.0
2017-Dec-10 09:30N 37°44' W 122°20'0 0.0
2017-Dec-10 09:00N 37°44' W 122°20'0 0.4
2017-Dec-10 08:30N 37°44' W 122°20'0 0.1
2017-Dec-10 08:00N 37°44' W 122°20'0 0.0
2017-Dec-10 07:31N 37°44' W 122°20'0 0.0
2017-Dec-10 07:00N 37°44' W 122°20'0 0.0
2017-Dec-10 06:30N 37°44' W 122°20'0 0.0
2017-Dec-10 06:00N 37°44' W 122°20'0 0.0
2017-Dec-10 05:30N 37°44' W 122°20'0 0.0
2017-Dec-10 05:00N 37°44' W 122°20'0 0.0
2017-Dec-10 04:30N 37°44' W 122°20'0 0.2
2017-Dec-10 04:01N 37°44' W 122°20'3 5.3
2017-Dec-10 03:30N 37°46' W 122°21'3 5.7
2017-Dec-10 03:00N 37°49' W 122°23'4 7.2
2017-Dec-10 02:30N 37°52' W 122°24'2 4.9
2017-Dec-10 02:00N 37°54' W 122°23'0 0.5
2017-Dec-10 01:30N 37°54' W 122°22'0 0.0
2017-Dec-10 01:00N 37°54' W 122°22'0 0.0
2017-Dec-10 00:30N 37°54' W 122°22'0 0.0
2017-Dec-10 00:00N 37°54' W 122°22'0 0.0
2017-Dec-09 23:30N 37°54' W 122°22'0 0.0
2017-Dec-09 22:57N 37°54' W 122°22'0 0.0
2017-Dec-09 22:30N 37°54' W 122°22'0 0.0
2017-Dec-09 22:00N 37°54' W 122°22'0 0.0
2017-Dec-09 21:30N 37°54' W 122°22'0 0.0
2017-Dec-09 21:00N 37°54' W 122°22'0 0.0
2017-Dec-09 20:30N 37°54' W 122°22'0 0.0
2017-Dec-09 20:00N 37°54' W 122°22'0 0.0
2017-Dec-09 19:30N 37°54' W 122°22'0 0.0
2017-Dec-09 19:00N 37°54' W 122°22'0 0.0
2017-Dec-09 18:30N 37°54' W 122°22'0 0.0
2017-Dec-09 18:00N 37°54' W 122°22'0 0.0
2017-Dec-09 17:30N 37°54' W 122°22'0 0.0
2017-Dec-09 17:00N 37°54' W 122°22'0 0.7
2017-Dec-09 16:30N 37°54' W 122°22'1 2.1
2017-Dec-09 16:00N 37°55' W 122°22'1 1.8
2017-Dec-09 15:30N 37°54' W 122°22'0 0.0
2017-Dec-09 15:00N 37°54' W 122°22'0 0.0
2017-Dec-09 14:30N 37°54' W 122°22'0 0.0
2017-Dec-09 14:00N 37°54' W 122°22'0 0.0
2017-Dec-09 13:30N 37°54' W 122°22'0 0.0
2017-Dec-09 13:00N 37°54' W 122°22'0 0.0
2017-Dec-09 12:30N 37°54' W 122°22'0 0.0
2017-Dec-09 12:00N 37°54' W 122°22'0 0.0
2017-Dec-09 11:30N 37°54' W 122°22'0 0.0
2017-Dec-09 11:00N 37°54' W 122°22'0 0.0
2017-Dec-09 10:30N 37°54' W 122°22'0 0.0
2017-Dec-09 10:00N 37°54' W 122°22'0 0.0
2017-Dec-09 09:30N 37°54' W 122°22'1 1.7
2017-Dec-09 08:59N 37°55' W 122°22'1 1.6
2017-Dec-09 08:30N 37°55' W 122°22'1 1.1
2017-Dec-09 08:00N 37°54' W 122°22'0 0.1
2017-Dec-09 07:31N 37°54' W 122°22'0 0.0
2017-Dec-09 07:00N 37°54' W 122°22'0 0.0
2017-Dec-09 06:30N 37°54' W 122°22'0 0.0
2017-Dec-09 06:00N 37°54' W 122°22'0 0.0
2017-Dec-09 05:30N 37°54' W 122°22'0 0.0
2017-Dec-09 05:00N 37°54' W 122°22'0 0.0
2017-Dec-09 04:30N 37°54' W 122°22'0 0.0
2017-Dec-09 04:00N 37°54' W 122°22'0 0.0
2017-Dec-09 03:30N 37°54' W 122°22'0 0.0
2017-Dec-09 03:00N 37°54' W 122°22'1 1.6
2017-Dec-09 02:30N 37°55' W 122°22'0 0.2
2017-Dec-09 02:00N 37°55' W 122°22'1 1.6
2017-Dec-09 01:30N 37°54' W 122°22'3 5.4
2017-Dec-09 00:58N 37°55' W 122°25'2 3.5
2017-Dec-09 00:30N 37°53' W 122°25'2 4.8
2017-Dec-09 00:00N 37°54' W 122°22'0 0.3
2017-Dec-08 23:30N 37°54' W 122°22'0 0.0
2017-Dec-08 23:00N 37°54' W 122°22'0 0.0
2017-Dec-08 22:30N 37°54' W 122°22'0 0.0
2017-Dec-08 22:00N 37°54' W 122°22'0 0.0
2017-Dec-08 21:30N 37°54' W 122°22'0 0.0
2017-Dec-08 21:00N 37°54' W 122°22'0 0.0
2017-Dec-08 20:30N 37°54' W 122°22'0 0.0
2017-Dec-08 20:00N 37°54' W 122°22'0 0.0
2017-Dec-08 19:30N 37°54' W 122°22'0 0.0
2017-Dec-08 19:00N 37°54' W 122°22'0 0.0
2017-Dec-08 18:30N 37°54' W 122°22'0 0.0
2017-Dec-08 18:00N 37°54' W 122°22'0 0.0
2017-Dec-08 17:30N 37°54' W 122°22'0 0.0
2017-Dec-08 17:00N 37°54' W 122°22'3 4.9
2017-Dec-08 16:29N 37°55' W 122°25'0 1.0
2017-Dec-08 16:00N 37°55' W 122°25'0 0.4
2017-Dec-08 15:30N 37°55' W 122°25'2 4.1
2017-Dec-08 15:00N 37°54' W 122°22'0 0.0
2017-Dec-08 14:30N 37°54' W 122°22'0 0.0
2017-Dec-08 14:00N 37°54' W 122°22'0 0.1
2017-Dec-08 13:30N 37°54' W 122°22'1 1.9
2017-Dec-08 13:00N 37°55' W 122°22'  
Track history (hours):
 
Tides and Currents Weather Stations Pressure Air Temp Water Temp Dewpoint Dewpoint Depression Visibility Wind Speed Wind Dir Waves Ship Positions

Keegan Foss

Owner: FOSS MARITIME CO, SEATTLE, WA. More information available from US FCC via Universal Licensing System and Coast Guard Vessel Documentation Center.

Last reported at 2017-Dec-18 12:30 UTC. Time now 2017-Dec-18 12:32 UTC.
Position N 37°54' W 122°22'.

Length 31 m; draft 3.6 m.

Type: Tug. MMSI: 366979330.

Date/timePositionNaut miles runAvg speedWind from/ knotsBaromVisibWave heightAir tempDewpointWater temp
2017-Dec-18 12:30N 37°54' W 122°22'0 0.4
2017-Dec-18 12:00N 37°54' W 122°22'2 4.2
2017-Dec-18 11:30N 37°55' W 122°24'1 2.4
2017-Dec-18 11:00N 37°54' W 122°25'2 2.8
2017-Dec-18 10:24N 37°55' W 122°25'0 0.0
2017-Dec-18 10:00N 37°55' W 122°25'0 0.0
2017-Dec-18 09:31N 37°55' W 122°25'0 0.0
2017-Dec-18 09:00N 37°55' W 122°25'0 0.0
2017-Dec-18 08:30N 37°55' W 122°25'0 0.0
2017-Dec-18 08:00N 37°55' W 122°25'0 0.0
2017-Dec-18 07:30N 37°55' W 122°25'0 0.0
2017-Dec-18 07:00N 37°55' W 122°25'0 0.0
2017-Dec-18 06:30N 37°55' W 122°25'0 0.0
2017-Dec-18 06:00N 37°55' W 122°25'0 0.0
2017-Dec-18 05:30N 37°55' W 122°25'0 0.0
2017-Dec-18 05:00N 37°55' W 122°25'0 0.0
2017-Dec-18 04:30N 37°55' W 122°25'0 0.0
2017-Dec-18 04:00N 37°55' W 122°25'0 0.0
2017-Dec-18 03:30N 37°55' W 122°25'0 0.0
2017-Dec-18 03:00N 37°55' W 122°25'0 0.0
2017-Dec-18 02:30N 37°55' W 122°25'0 0.0
2017-Dec-18 02:00N 37°55' W 122°25'0 0.0
2017-Dec-18 01:30N 37°55' W 122°25'0 0.0
2017-Dec-18 01:00N 37°55' W 122°25'0 0.0
2017-Dec-18 00:30N 37°55' W 122°25'0 0.0
2017-Dec-18 00:00N 37°55' W 122°25'0 0.0
2017-Dec-17 23:30N 37°55' W 122°25'0 0.0
2017-Dec-17 23:00N 37°55' W 122°25'0 0.0
2017-Dec-17 22:30N 37°55' W 122°25'0 0.0
2017-Dec-17 22:00N 37°55' W 122°25'0 0.0
2017-Dec-17 21:28N 37°55' W 122°25'0 0.0
2017-Dec-17 21:00N 37°55' W 122°25'0 0.0
2017-Dec-17 20:30N 37°55' W 122°25'0 0.0
2017-Dec-17 20:00N 37°55' W 122°25'0 0.0
2017-Dec-17 19:30N 37°55' W 122°25'0 0.0
2017-Dec-17 18:57N 37°55' W 122°25'0 0.0
2017-Dec-17 18:30N 37°55' W 122°25'0 0.0
2017-Dec-17 18:00N 37°55' W 122°25'0 0.0
2017-Dec-17 17:30N 37°55' W 122°25'0 0.2
2017-Dec-17 17:00N 37°55' W 122°25'0 0.2
2017-Dec-17 16:30N 37°55' W 122°25'0 0.0
2017-Dec-17 15:45N 37°55' W 122°25'0 0.0
2017-Dec-17 15:30N 37°55' W 122°25'2 3.6
2017-Dec-17 15:01N 37°54' W 122°23'1 2.0
2017-Dec-17 14:30N 37°55' W 122°22'2 3.2
2017-Dec-17 14:01N 37°54' W 122°24'2 4.0
2017-Dec-17 13:31N 37°52' W 122°24'4 7.0
2017-Dec-17 13:01N 37°50' W 122°22'3 5.7
2017-Dec-17 12:30N 37°48' W 122°19'0 0.0
2017-Dec-17 11:58N 37°48' W 122°19'0 0.0
2017-Dec-17 11:28N 37°48' W 122°19'0 0.0
2017-Dec-17 10:58N 37°48' W 122°19'0 0.0
2017-Dec-17 10:28N 37°48' W 122°19'0 0.0
2017-Dec-17 09:58N 37°48' W 122°19'0 0.0
2017-Dec-17 09:28N 37°48' W 122°19'0 0.0
2017-Dec-17 08:58N 37°48' W 122°19'0 0.0
2017-Dec-17 08:28N 37°48' W 122°19'0 0.0
2017-Dec-17 07:58N 37°48' W 122°19'0 0.0
2017-Dec-17 07:28N 37°48' W 122°19'0 0.0
2017-Dec-17 06:58N 37°48' W 122°19'0 0.0
2017-Dec-17 06:28N 37°48' W 122°19'0 0.0
2017-Dec-17 05:58N 37°48' W 122°19'0 0.0
2017-Dec-17 05:28N 37°48' W 122°19'0 0.0
2017-Dec-17 05:01N 37°48' W 122°19'0 0.1
2017-Dec-17 04:30N 37°48' W 122°19'2 4.6
2017-Dec-17 04:01N 37°49' W 122°21'0 0.4
2017-Dec-17 03:25N 37°49' W 122°22'0 0.0
2017-Dec-17 02:58N 37°49' W 122°22'0 0.0
2017-Dec-17 02:28N 37°49' W 122°22'0 0.0
2017-Dec-17 02:00N 37°49' W 122°22'0 0.0
2017-Dec-17 01:31N 37°49' W 122°22'0 0.0
2017-Dec-17 01:00N 37°49' W 122°22'0 0.0
2017-Dec-17 00:30N 37°49' W 122°22'0 0.0
2017-Dec-17 00:00N 37°49' W 122°22'0 0.0
2017-Dec-16 23:30N 37°49' W 122°22'0 0.0
2017-Dec-16 23:00N 37°49' W 122°22'0 0.0
2017-Dec-16 22:30N 37°49' W 122°22'0 0.0
2017-Dec-16 22:00N 37°49' W 122°22'0 0.0
2017-Dec-16 21:30N 37°49' W 122°22'2 4.5
2017-Dec-16 21:01N 37°47' W 122°21'1 1.6
2017-Dec-16 20:30N 37°46' W 122°21'0 0.4
2017-Dec-16 20:00N 37°46' W 122°21'0 0.2
2017-Dec-16 19:30N 37°46' W 122°21'0 0.0
2017-Dec-16 18:57N 37°46' W 122°21'0 0.0
2017-Dec-16 18:30N 37°46' W 122°21'0 0.0
2017-Dec-16 18:00N 37°46' W 122°21'0 0.0
2017-Dec-16 17:30N 37°46' W 122°21'0 0.1
2017-Dec-16 17:00N 37°46' W 122°21'0 0.1
2017-Dec-16 16:30N 37°46' W 122°21'2 4.7
2017-Dec-16 16:00N 37°48' W 122°21'1 2.0
2017-Dec-16 15:30N 37°49' W 122°22'4 7.7
2017-Dec-16 15:00N 37°53' W 122°24'3 5.1
2017-Dec-16 14:30N 37°54' W 122°22'1 1.6
2017-Dec-16 14:00N 37°55' W 122°22'1 1.8
2017-Dec-16 13:30N 37°54' W 122°22'0 0.8
2017-Dec-16 13:00N 37°54' W 122°22'0 0.0
2017-Dec-16 12:30N 37°54' W 122°22'1 1.0
2017-Dec-16 12:00N 37°54' W 122°22'0 0.0
2017-Dec-16 11:30N 37°54' W 122°22'0 0.0
2017-Dec-16 11:00N 37°54' W 122°22'0 0.0
2017-Dec-16 10:31N 37°54' W 122°22'0 0.0
2017-Dec-16 10:00N 37°54' W 122°22'0 0.0
2017-Dec-16 09:30N 37°54' W 122°22'0 0.0
2017-Dec-16 09:00N 37°54' W 122°22'0 0.0
2017-Dec-16 08:30N 37°54' W 122°22'0 0.0
2017-Dec-16 08:00N 37°54' W 122°22'0 0.0
2017-Dec-16 07:30N 37°54' W 122°22'0 0.0
2017-Dec-16 07:00N 37°54' W 122°22'0 0.0
2017-Dec-16 06:30N 37°54' W 122°22'0 0.0
2017-Dec-16 06:00N 37°54' W 122°22'0 0.0
2017-Dec-16 05:30N 37°54' W 122°22'0 0.0
2017-Dec-16 05:00N 37°54' W 122°22'1 1.0
2017-Dec-16 04:30N 37°54' W 122°22'1 1.9
2017-Dec-16 04:00N 37°55' W 122°22'1 1.2
2017-Dec-16 03:30N 37°55' W 122°22'1 1.2
2017-Dec-16 03:00N 37°54' W 122°22'0 0.2
2017-Dec-16 02:29N 37°54' W 122°22'0 0.0
2017-Dec-16 02:00N 37°54' W 122°22'2 3.5
2017-Dec-16 01:30N 37°55' W 122°24'1 0.4
2017-Dec-16 00:06N 37°55' W 122°25'0 0.0
2017-Dec-15 23:12N 37°55' W 122°25'0 0.0
2017-Dec-15 23:00N 37°55' W 122°25'0 0.0
2017-Dec-15 22:21N 37°55' W 122°25'0 0.0
2017-Dec-15 21:57N 37°55' W 122°25'0 0.0
2017-Dec-15 21:25N 37°55' W 122°25'2 5.0
2017-Dec-15 21:00N 37°54' W 122°22'1 1.0
2017-Dec-15 20:29N 37°55' W 122°22'0 0.1
2017-Dec-15 19:53N 37°54' W 122°22'0 0.1
2017-Dec-15 19:29N 37°54' W 122°22'0 0.1
2017-Dec-15 19:00N 37°55' W 122°22'3 5.5
2017-Dec-15 18:30N 37°56' W 122°25'0 0.0
2017-Dec-15 18:00N 37°56' W 122°25'0 0.1
2017-Dec-15 17:30N 37°56' W 122°25'2 3.9
2017-Dec-15 17:00N 37°54' W 122°25'0 0.6
2017-Dec-15 16:30N 37°53' W 122°25'1 2.5
2017-Dec-15 16:00N 37°55' W 122°24'2 3.2
2017-Dec-15 15:29N 37°54' W 122°22'0 0.0
2017-Dec-15 14:50N 37°54' W 122°22'0 0.0
2017-Dec-15 14:29N 37°54' W 122°22'0 0.0
2017-Dec-15 14:00N 37°54' W 122°22'0 0.4
2017-Dec-15 13:31N 37°54' W 122°22'1 2.1
2017-Dec-15 13:00N 37°55' W 122°22'1 2.0
2017-Dec-15 12:30N 37°54' W 122°22'0 0.2
2017-Dec-15 11:59N 37°54' W 122°22'0 0.0
2017-Dec-15 11:29N 37°54' W 122°22'0 0.0
2017-Dec-15 10:59N 37°54' W 122°22'0 0.0
2017-Dec-15 10:29N 37°54' W 122°22'0 0.0
2017-Dec-15 09:59N 37°54' W 122°22'0 0.0
2017-Dec-15 09:29N 37°54' W 122°22'0 0.0
2017-Dec-15 08:56N 37°54' W 122°22'0 0.0
2017-Dec-15 08:29N 37°54' W 122°22'0 0.0
2017-Dec-15 07:59N 37°54' W 122°22'0 0.0
2017-Dec-15 07:29N 37°54' W 122°22'2 3.9
2017-Dec-15 07:00N 37°55' W 122°25'1 1.0
2017-Dec-15 06:30N 37°55' W 122°25'0 0.0
2017-Dec-15 06:00N 37°55' W 122°25'0 0.0
2017-Dec-15 05:30N 37°55' W 122°25'0 0.0
2017-Dec-15 05:00N 37°55' W 122°25'0 0.0
2017-Dec-15 04:27N 37°55' W 122°25'0 0.0
2017-Dec-15 03:57N 37°55' W 122°25'0 0.0
2017-Dec-15 02:27N 37°55' W 122°25'0 0.0
2017-Dec-15 01:00N 37°55' W 122°25'0 0.0
2017-Dec-15 00:27N 37°55' W 122°25'2 0.3
2017-Dec-14 18:30N 37°54' W 122°22'0 0.0
2017-Dec-14 18:00N 37°54' W 122°22'0 0.0
2017-Dec-14 17:24N 37°54' W 122°22'0 0.0
2017-Dec-14 17:00N 37°54' W 122°22'0 0.0
2017-Dec-14 16:30N 37°54' W 122°22'0 0.0
2017-Dec-14 16:00N 37°54' W 122°22'2 2.3
2017-Dec-14 15:00N 37°55' W 122°25'0 0.7
2017-Dec-14 14:30N 37°55' W 122°25'3 5.4
2017-Dec-14 14:01N 37°54' W 122°22'0 0.8
2017-Dec-14 13:31N 37°55' W 122°22'1 1.2
2017-Dec-14 13:01N 37°54' W 122°22'0 0.0
2017-Dec-14 12:30N 37°54' W 122°22'0 0.0
2017-Dec-14 12:01N 37°54' W 122°22'0 0.0
2017-Dec-14 11:31N 37°54' W 122°22'0 0.0
2017-Dec-14 11:01N 37°54' W 122°22'0 0.0
2017-Dec-14 10:30N 37°54' W 122°22'0 0.0
2017-Dec-14 10:01N 37°54' W 122°22'0 0.0
2017-Dec-14 09:31N 37°54' W 122°22'0 0.0
2017-Dec-14 09:01N 37°54' W 122°22'0 0.0
2017-Dec-14 08:30N 37°54' W 122°22'0 0.0
2017-Dec-14 08:01N 37°54' W 122°22'0 0.0
2017-Dec-14 07:31N 37°54' W 122°22'0 0.0
2017-Dec-14 07:01N 37°54' W 122°22'0 0.0
2017-Dec-14 06:30N 37°54' W 122°22'0 0.0
2017-Dec-14 06:01N 37°54' W 122°22'0 0.0
2017-Dec-14 05:30N 37°54' W 122°22'0 0.0
2017-Dec-14 05:00N 37°54' W 122°22'0 0.0
2017-Dec-14 04:31N 37°54' W 122°22'0 0.8
2017-Dec-14 04:01N 37°54' W 122°22'0 0.2
2017-Dec-14 03:31N 37°54' W 122°22'0 0.2
2017-Dec-14 03:00N 37°54' W 122°22'1 1.6
2017-Dec-14 02:30N 37°55' W 122°22'0 0.0
2017-Dec-14 02:01N 37°55' W 122°22'1 1.1
2017-Dec-14 01:31N 37°55' W 122°22'0 0.9
2017-Dec-14 01:00N 37°54' W 122°22'2 3.2
2017-Dec-14 00:30N 37°54' W 122°24'1 2.6
2017-Dec-14 00:00N 37°54' W 122°22'0 0.0
2017-Dec-13 23:30N 37°54' W 122°22'0 0.0
2017-Dec-13 22:57N 37°54' W 122°22'0 0.0
2017-Dec-13 22:30N 37°54' W 122°22'0 0.0
2017-Dec-13 22:00N 37°54' W 122°22'0 0.0
2017-Dec-13 21:27N 37°54' W 122°22'0 0.0
2017-Dec-13 21:00N 37°54' W 122°22'0 0.0
2017-Dec-13 20:30N 37°54' W 122°22'0 0.0
2017-Dec-13 20:00N 37°54' W 122°22'0 0.0
2017-Dec-13 19:30N 37°54' W 122°22'0 0.0
2017-Dec-13 18:57N 37°54' W 122°22'0 0.0
2017-Dec-13 18:09N 37°54' W 122°22'0 0.0
2017-Dec-13 17:51N 37°54' W 122°22'0 0.0
2017-Dec-13 17:12N 37°54' W 122°22'0 0.0
2017-Dec-13 17:00N 37°54' W 122°22'0 0.0
2017-Dec-13 16:30N 37°54' W 122°22'0 0.0
2017-Dec-13 16:00N 37°54' W 122°22'0 0.0
2017-Dec-13 15:21N 37°54' W 122°22'0 0.0
2017-Dec-13 14:57N 37°54' W 122°22'0 0.0
2017-Dec-13 14:30N 37°54' W 122°22'0 0.0
2017-Dec-13 13:57N 37°54' W 122°22'0 0.0
2017-Dec-13 13:27N 37°54' W 122°22'0 0.0
2017-Dec-13 13:00N 37°54' W 122°22'0 0.0
2017-Dec-13 12:30N 37°54' W 122°22'0 0.0
2017-Dec-13 12:00N 37°54' W 122°22'0 0.0
2017-Dec-13 11:30N 37°54' W 122°22'0 0.0
2017-Dec-13 11:00N 37°54' W 122°22'0 0.0
2017-Dec-13 10:30N 37°54' W 122°22'0 0.0
2017-Dec-13 10:00N 37°54' W 122°22'0 0.0
2017-Dec-13 09:30N 37°54' W 122°22'0 0.0
2017-Dec-13 08:57N 37°54' W 122°22'0 0.0
2017-Dec-13 08:30N 37°54' W 122°22'0 0.0
2017-Dec-13 08:00N 37°54' W 122°22'0 0.0
2017-Dec-13 07:30N 37°54' W 122°22'0 0.0
2017-Dec-13 07:00N 37°54' W 122°22'1 1.3
2017-Dec-13 06:30N 37°55' W 122°22'0 0.2
2017-Dec-13 06:00N 37°55' W 122°22'3 5.2
2017-Dec-13 05:30N 37°54' W 122°25'2 4.8
2017-Dec-13 05:00N 37°52' W 122°24'4 8.1
2017-Dec-13 04:30N 37°48' W 122°22'4 7.4
2017-Dec-13 04:00N 37°45' W 122°21'1 1.9
2017-Dec-13 03:30N 37°44' W 122°21'0 0.0
2017-Dec-13 02:58N 37°44' W 122°21'0 0.0
2017-Dec-13 02:31N 37°44' W 122°21'0 0.0
2017-Dec-13 01:58N 37°44' W 122°21'0 0.0
2017-Dec-13 01:31N 37°44' W 122°21'0 0.0
2017-Dec-13 01:01N 37°44' W 122°21'0 0.0
2017-Dec-13 00:31N 37°44' W 122°21'0 0.0
2017-Dec-12 23:57N 37°44' W 122°21'0 0.1
2017-Dec-12 23:27N 37°44' W 122°21'0 0.3
2017-Dec-12 22:57N 37°44' W 122°21'0 0.1
2017-Dec-12 22:31N 37°44' W 122°21'0 0.0
2017-Dec-12 22:00N 37°44' W 122°21'2 3.2
2017-Dec-12 21:30N 37°45' W 122°21'3 6.7
2017-Dec-12 21:01N 37°49' W 122°21'0 0.9
2017-Dec-12 20:28N 37°49' W 122°22'0 0.0
2017-Dec-12 19:58N 37°49' W 122°22'0 0.0
2017-Dec-12 19:28N 37°49' W 122°22'0 0.0
2017-Dec-12 18:58N 37°49' W 122°22'0 0.0
2017-Dec-12 18:28N 37°49' W 122°22'0 0.0
2017-Dec-12 17:58N 37°49' W 122°22'0 0.0
2017-Dec-12 17:28N 37°49' W 122°22'0 0.0
2017-Dec-12 16:58N 37°49' W 122°22'0 0.0
2017-Dec-12 16:28N 37°49' W 122°22'0 0.0
2017-Dec-12 16:01N 37°49' W 122°22'0 0.1
2017-Dec-12 15:31N 37°49' W 122°22'3 6.6
2017-Dec-12 15:00N 37°52' W 122°24'2 4.7
2017-Dec-12 14:30N 37°54' W 122°23'1 2.5
2017-Dec-12 14:00N 37°55' W 122°22'1 1.4
2017-Dec-12 13:26N 37°54' W 122°22'0 0.0
2017-Dec-12 12:59N 37°54' W 122°22'0 0.0
2017-Dec-12 12:29N 37°54' W 122°22'0 0.0
2017-Dec-12 11:59N 37°54' W 122°22'0 0.0
2017-Dec-12 11:29N 37°54' W 122°22'0 0.0
2017-Dec-12 10:59N 37°54' W 122°22'0 0.0
2017-Dec-12 10:29N 37°54' W 122°22'0 0.0
2017-Dec-12 09:53N 37°54' W 122°22'0 0.0
2017-Dec-12 09:29N 37°54' W 122°22'0 0.0
2017-Dec-12 08:56N 37°54' W 122°22'0 0.0
2017-Dec-12 08:29N 37°54' W 122°22'0 0.0
2017-Dec-12 07:59N 37°54' W 122°22'0 0.0
2017-Dec-12 07:29N 37°54' W 122°22'0 0.0
2017-Dec-12 06:59N 37°54' W 122°22'0 0.0
2017-Dec-12 06:29N 37°54' W 122°22'0 0.0
2017-Dec-12 05:59N 37°54' W 122°22'0 0.0
2017-Dec-12 05:29N 37°54' W 122°22'0 0.5
2017-Dec-12 05:00N 37°54' W 122°23'2 4.1
2017-Dec-12 04:31N 37°55' W 122°25'0 0.9
2017-Dec-12 04:00N 37°55' W 122°25'2 4.6
2017-Dec-12 03:30N 37°55' W 122°22'1 1.2
2017-Dec-12 03:00N 37°55' W 122°22'0 0.1
2017-Dec-12 02:30N 37°55' W 122°22'0 0.5
2017-Dec-12 02:00N 37°55' W 122°22'1 1.7
2017-Dec-12 01:30N 37°54' W 122°22'0 0.0
2017-Dec-12 01:00N 37°54' W 122°22'0 0.0
2017-Dec-12 00:30N 37°54' W 122°22'0 0.0
2017-Dec-12 00:00N 37°54' W 122°22'0 0.0
2017-Dec-11 23:30N 37°54' W 122°22'0 0.0
2017-Dec-11 23:00N 37°54' W 122°22'0 0.0
2017-Dec-11 22:30N 37°54' W 122°22'0 0.0
2017-Dec-11 21:59N 37°54' W 122°22'1 2.6
2017-Dec-11 21:30N 37°54' W 122°24'3 6.1
2017-Dec-11 21:00N 37°51' W 122°23'4 8.4
2017-Dec-11 20:31N 37°48' W 122°20'2 3.4
2017-Dec-11 20:00N 37°48' W 122°18'0 0.0
2017-Dec-11 19:30N 37°48' W 122°18'0 0.0
2017-Dec-11 19:00N 37°48' W 122°18'0 0.0
2017-Dec-11 18:30N 37°48' W 122°18'0 0.0
2017-Dec-11 18:00N 37°48' W 122°18'0 0.0
2017-Dec-11 17:31N 37°48' W 122°18'0 0.0
2017-Dec-11 17:00N 37°48' W 122°18'0 0.0
2017-Dec-11 16:30N 37°48' W 122°18'0 0.0
2017-Dec-11 16:00N 37°48' W 122°18'0 0.0
2017-Dec-11 15:30N 37°48' W 122°18'0 0.0
2017-Dec-11 15:00N 37°48' W 122°18'0 0.8
2017-Dec-11 14:31N 37°48' W 122°18'1 1.7
2017-Dec-11 14:00N 37°48' W 122°19'2 4.2
2017-Dec-11 13:30N 37°49' W 122°21'2 3.9
2017-Dec-11 13:00N 37°51' W 122°23'3 6.5
2017-Dec-11 12:30N 37°54' W 122°25'2 3.7
2017-Dec-11 12:00N 37°54' W 122°22'0 0.1
2017-Dec-11 11:30N 37°54' W 122°22'0 0.0
2017-Dec-11 11:00N 37°54' W 122°22'0 0.0
2017-Dec-11 10:30N 37°54' W 122°22'0 0.0
2017-Dec-11 10:00N 37°54' W 122°22'0 0.0
2017-Dec-11 09:30N 37°54' W 122°22'0 0.0
2017-Dec-11 09:00N 37°54' W 122°22'0 0.0
2017-Dec-11 08:30N 37°54' W 122°22'0 0.0
2017-Dec-11 08:00N 37°54' W 122°22'0 0.0
2017-Dec-11 07:30N 37°54' W 122°22'0 0.0
2017-Dec-11 07:00N 37°54' W 122°22'0 0.0
2017-Dec-11 06:30N 37°54' W 122°22'0 0.0
2017-Dec-11 06:00N 37°54' W 122°22'0 0.0
2017-Dec-11 05:30N 37°54' W 122°22'0 0.0
2017-Dec-11 05:00N 37°54' W 122°22'0 0.0
2017-Dec-11 04:30N 37°54' W 122°22'1 1.2
2017-Dec-11 03:50N 37°55' W 122°22'1 2.8
2017-Dec-11 03:30N 37°54' W 122°23'2 4.7
2017-Dec-11 03:00N 37°55' W 122°25'0 0.6
2017-Dec-11 02:28N 37°55' W 122°25'0 0.0
2017-Dec-11 01:55N 37°55' W 122°25'0 0.0
2017-Dec-11 01:28N 37°55' W 122°25'0 0.0
2017-Dec-11 00:58N 37°55' W 122°25'1 2.0
2017-Dec-11 00:30N 37°55' W 122°25'1 1.6
2017-Dec-10 23:56N 37°56' W 122°25'0 0.9
2017-Dec-10 23:30N 37°55' W 122°25'2 4.3
2017-Dec-10 22:59N 37°54' W 122°22'0 0.0
2017-Dec-10 22:29N 37°54' W 122°22'0 0.0
2017-Dec-10 21:59N 37°54' W 122°22'0 0.0
2017-Dec-10 21:29N 37°54' W 122°22'0 0.0
2017-Dec-10 20:47N 37°54' W 122°22'0 0.0
2017-Dec-10 20:29N 37°54' W 122°22'0 0.0
2017-Dec-10 19:59N 37°54' W 122°22'0 0.0
2017-Dec-10 19:29N 37°54' W 122°22'0 0.0
2017-Dec-10 18:59N 37°54' W 122°22'0 0.0
2017-Dec-10 18:29N 37°54' W 122°22'0 0.0
2017-Dec-10 17:59N 37°54' W 122°22'0 0.0
2017-Dec-10 17:29N 37°54' W 122°22'0 0.0
2017-Dec-10 16:59N 37°54' W 122°22'0 0.0
2017-Dec-10 16:29N 37°54' W 122°22'0 0.0
2017-Dec-10 16:00N 37°54' W 122°22'1 1.4
2017-Dec-10 15:30N 37°55' W 122°22'2 4.6
2017-Dec-10 15:00N 37°54' W 122°25'4 8.7
2017-Dec-10 14:30N 37°50' W 122°23'4 8.4
2017-Dec-10 14:00N 37°46' W 122°21'3 5.6
2017-Dec-10 13:30N 37°44' W 122°19'0 0.0
2017-Dec-10 13:00N 37°44' W 122°19'0 0.0
2017-Dec-10 12:30N 37°44' W 122°19'0 0.0
2017-Dec-10 12:00N 37°44' W 122°19'0 0.0
2017-Dec-10 11:30N 37°44' W 122°19'0 0.0
2017-Dec-10 11:01N 37°44' W 122°19'0 0.0
2017-Dec-10 10:30N 37°44' W 122°19'0 0.1
2017-Dec-10 10:01N 37°44' W 122°20'0 0.0
2017-Dec-10 09:30N 37°44' W 122°20'0 0.0
2017-Dec-10 09:00N 37°44' W 122°20'0 0.4
2017-Dec-10 08:30N 37°44' W 122°20'0 0.1
2017-Dec-10 08:00N 37°44' W 122°20'0 0.0
2017-Dec-10 07:31N 37°44' W 122°20'0 0.0
2017-Dec-10 07:00N 37°44' W 122°20'0 0.0
2017-Dec-10 06:30N 37°44' W 122°20'0 0.0
2017-Dec-10 06:00N 37°44' W 122°20'0 0.0
2017-Dec-10 05:30N 37°44' W 122°20'0 0.0
2017-Dec-10 05:00N 37°44' W 122°20'0 0.0
2017-Dec-10 04:30N 37°44' W 122°20'0 0.2
2017-Dec-10 04:01N 37°44' W 122°20'3 5.3
2017-Dec-10 03:30N 37°46' W 122°21'3 5.7
2017-Dec-10 03:00N 37°49' W 122°23'4 7.2
2017-Dec-10 02:30N 37°52' W 122°24'2 4.9
2017-Dec-10 02:00N 37°54' W 122°23'0 0.5
2017-Dec-10 01:30N 37°54' W 122°22'0 0.0
2017-Dec-10 01:00N 37°54' W 122°22'0 0.0
2017-Dec-10 00:30N 37°54' W 122°22'0 0.0
2017-Dec-10 00:00N 37°54' W 122°22'0 0.0
2017-Dec-09 23:30N 37°54' W 122°22'0 0.0
2017-Dec-09 22:57N 37°54' W 122°22'0 0.0
2017-Dec-09 22:30N 37°54' W 122°22'0 0.0
2017-Dec-09 22:00N 37°54' W 122°22'0 0.0
2017-Dec-09 21:30N 37°54' W 122°22'0 0.0
2017-Dec-09 21:00N 37°54' W 122°22'0 0.0
2017-Dec-09 20:30N 37°54' W 122°22'0 0.0
2017-Dec-09 20:00N 37°54' W 122°22'0 0.0
2017-Dec-09 19:30N 37°54' W 122°22'0 0.0
2017-Dec-09 19:00N 37°54' W 122°22'0 0.0
2017-Dec-09 18:30N 37°54' W 122°22'0 0.0
2017-Dec-09 18:00N 37°54' W 122°22'0 0.0
2017-Dec-09 17:30N 37°54' W 122°22'0 0.0
2017-Dec-09 17:00N 37°54' W 122°22'0 0.7
2017-Dec-09 16:30N 37°54' W 122°22'1 2.1
2017-Dec-09 16:00N 37°55' W 122°22'1 1.8
2017-Dec-09 15:30N 37°54' W 122°22'0 0.0
2017-Dec-09 15:00N 37°54' W 122°22'0 0.0
2017-Dec-09 14:30N 37°54' W 122°22'0 0.0
2017-Dec-09 14:00N 37°54' W 122°22'0 0.0
2017-Dec-09 13:30N 37°54' W 122°22'0 0.0
2017-Dec-09 13:00N 37°54' W 122°22'0 0.0
2017-Dec-09 12:30N 37°54' W 122°22'0 0.0
2017-Dec-09 12:00N 37°54' W 122°22'0 0.0
2017-Dec-09 11:30N 37°54' W 122°22'0 0.0
2017-Dec-09 11:00N 37°54' W 122°22'0 0.0
2017-Dec-09 10:30N 37°54' W 122°22'0 0.0
2017-Dec-09 10:00N 37°54' W 122°22'0 0.0
2017-Dec-09 09:30N 37°54' W 122°22'1 1.7
2017-Dec-09 08:59N 37°55' W 122°22'1 1.6
2017-Dec-09 08:30N 37°55' W 122°22'1 1.1
2017-Dec-09 08:00N 37°54' W 122°22'0 0.1
2017-Dec-09 07:31N 37°54' W 122°22'0 0.0
2017-Dec-09 07:00N 37°54' W 122°22'0 0.0
2017-Dec-09 06:30N 37°54' W 122°22'0 0.0
2017-Dec-09 06:00N 37°54' W 122°22'0 0.0
2017-Dec-09 05:30N 37°54' W 122°22'0 0.0
2017-Dec-09 05:00N 37°54' W 122°22'0 0.0
2017-Dec-09 04:30N 37°54' W 122°22'0 0.0
2017-Dec-09 04:00N 37°54' W 122°22'0 0.0
2017-Dec-09 03:30N 37°54' W 122°22'0 0.0
2017-Dec-09 03:00N 37°54' W 122°22'1 1.6
2017-Dec-09 02:30N 37°55' W 122°22'0 0.2
2017-Dec-09 02:00N 37°55' W 122°22'1 1.6
2017-Dec-09 01:30N 37°54' W 122°22'3 5.4
2017-Dec-09 00:58N 37°55' W 122°25'2 3.5
2017-Dec-09 00:30N 37°53' W 122°25'2 4.8
2017-Dec-09 00:00N 37°54' W 122°22'0 0.3
2017-Dec-08 23:30N 37°54' W 122°22'0 0.0
2017-Dec-08 23:00N 37°54' W 122°22'0 0.0
2017-Dec-08 22:30N 37°54' W 122°22'0 0.0
2017-Dec-08 22:00N 37°54' W 122°22'0 0.0
2017-Dec-08 21:30N 37°54' W 122°22'0 0.0
2017-Dec-08 21:00N 37°54' W 122°22'0 0.0
2017-Dec-08 20:30N 37°54' W 122°22'0 0.0
2017-Dec-08 20:00N 37°54' W 122°22'0 0.0
2017-Dec-08 19:30N 37°54' W 122°22'0 0.0
2017-Dec-08 19:00N 37°54' W 122°22'0 0.0
2017-Dec-08 18:30N 37°54' W 122°22'0 0.0
2017-Dec-08 18:00N 37°54' W 122°22'0 0.0
2017-Dec-08 17:30N 37°54' W 122°22'0 0.0
2017-Dec-08 17:00N 37°54' W 122°22'3 4.9
2017-Dec-08 16:29N 37°55' W 122°25'0 1.0
2017-Dec-08 16:00N 37°55' W 122°25'0 0.4
2017-Dec-08 15:30N 37°55' W 122°25'2 4.1
2017-Dec-08 15:00N 37°54' W 122°22'0 0.0
2017-Dec-08 14:30N 37°54' W 122°22'0 0.0
2017-Dec-08 14:00N 37°54' W 122°22'0 0.1
2017-Dec-08 13:30N 37°54' W 122°22'1 1.9
2017-Dec-08 13:00N 37°55' W 122°22'  

Dump ship's entire track history